Time;durP1;ratioP1;P1;durP2;ratioP2;P2;SDS_P1;SDS_P2;PMS_P1;PMS_P2;Temp;Humidity;BMP_temperature;BMP_pressure;BME280_temperature;BME280_humidity;BME280_pressure;Samples;Min_cycle;Max_cycle;Signal;HPM_P1;HPM_P2
2021/03/21 00:09:33;;;;;;;23.83;13.02;;;5.90;99.90;;;;;;6711465;88;20258;-75
2021/03/21 00:30:39;;;;;;;24.33;14.63;;;5.90;99.90;;;;;;6732605;88;20547;-80
2021/03/21 00:40:40;;;;;;;22.55;11.48;;;5.80;99.90;;;;;;6709868;88;20167;-79
2021/03/21 00:50:40;;;;;;;23.05;13.82;;;5.70;99.90;;;;;;6710811;88;20186;-79
2021/03/21 01:00:44;;;;;;;24.92;13.05;;;5.60;99.90;;;;;;6709115;88;20263;-80
2021/03/21 01:10:46;;;;;;;23.90;13.85;;;5.60;99.90;;;;;;6678064;89;20229;-80
2021/03/21 01:20:47;;;;;;;26.30;14.63;;;5.50;99.90;;;;;;6677762;89;20191;-82
2021/03/21 01:30:48;;;;;;;24.67;13.85;;;5.50;99.90;;;;;;6643409;89;20649;-81
2021/03/21 01:40:53;;;;;;;23.67;14.27;;;5.50;99.90;;;;;;6650745;89;20218;-81
2021/03/21 01:51:11;;;;;;;20.75;12.35;;;5.50;99.90;;;;;;6660825;89;20251;-80
2021/03/21 02:01:24;;;;;;;23.85;13.15;;;5.40;99.90;;;;;;6671694;88;20155;-81
2021/03/21 02:11:36;;;;;;;22.00;12.27;;;5.20;99.90;;;;;;6716600;88;20186;-81
2021/03/21 02:21:45;;;;;;;19.58;11.45;;;5.10;99.90;;;;;;6716565;88;20211;-81
2021/03/21 02:31:52;;;;;;;20.40;11.18;;;5.10;99.90;;;;;;6680249;89;20200;-81
2021/03/21 02:42:05;;;;;;;22.85;11.25;;;4.90;99.90;;;;;;6680403;89;20197;-80
2021/03/21 02:52:10;;;;;;;18.40;10.23;;;4.90;99.90;;;;;;6679731;89;20221;-80
2021/03/21 03:02:29;;;;;;;17.27;9.98;;;5.00;99.90;;;;;;6706302;88;20604;-81
2021/03/21 03:12:34;;;;;;;22.65;10.45;;;5.00;99.90;;;;;;6716329;88;20607;-82
2021/03/21 03:22:46;;;;;;;21.83;11.43;;;5.00;99.90;;;;;;6715664;88;20233;-80
2021/03/21 03:32:47;;;;;;;25.52;13.10;;;5.00;99.90;;;;;;6715901;88;20194;-80
2021/03/21 03:42:53;;;;;;;22.25;12.13;;;4.90;99.90;;;;;;6715910;88;20735;-81
2021/03/21 03:53:43;;;;;;;20.90;11.17;;;5.00;99.90;;;;;;6716007;88;20193;-80
2021/03/21 04:03:58;;;;;;;21.70;11.68;;;5.10;99.90;;;;;;6712066;88;20509;-81
2021/03/21 04:14:20;;;;;;;27.30;13.00;;;5.00;99.90;;;;;;6715744;88;20213;-80
2021/03/21 04:24:33;;;;;;;25.75;13.50;;;4.80;99.90;;;;;;6715271;88;20225;-79
2021/03/21 04:34:36;;;;;;;30.37;13.95;;;4.80;99.90;;;;;;6715378;88;20185;-80
2021/03/21 04:44:45;;;;;;;28.15;14.30;;;4.70;99.90;;;;;;6715499;88;20189;-80
2021/03/21 04:54:48;;;;;;;31.83;15.15;;;4.70;99.90;;;;;;6715493;88;20186;-82
2021/03/21 05:04:52;;;;;;;31.00;15.38;;;4.70;99.90;;;;;;6714847;88;20175;-80
2021/03/21 05:15:04;;;;;;;33.42;15.70;;;4.70;99.90;;;;;;6715515;88;20205;-81
2021/03/21 05:25:30;;;;;;;32.95;14.52;;;4.70;99.90;;;;;;6715715;88;20325;-82
2021/03/21 05:35:34;;;;;;;24.80;12.40;;;4.80;99.90;;;;;;6715846;88;20187;-81
2021/03/21 05:46:07;;;;;;;28.38;12.55;;;4.80;99.90;;;;;;6715956;88;20210;-82
2021/03/21 05:56:46;;;;;;;35.95;14.50;;;4.80;99.90;;;;;;6715559;88;20273;-82
2021/03/21 06:06:52;;;;;;;34.17;14.35;;;4.70;99.90;;;;;;6715729;88;20189;-80
2021/03/21 06:27:22;;;;;;;34.35;13.68;;;4.80;99.90;;;;;;6695099;88;20221;-78
2021/03/21 06:37:46;;;;;;;39.17;15.10;;;4.90;99.90;;;;;;6682609;89;20195;-79
2021/03/21 06:48:33;;;;;;;38.95;15.55;;;4.90;99.90;;;;;;6688230;88;20560;-78
2021/03/21 06:59:00;;;;;;;41.78;16.00;;;5.00;99.90;;;;;;6686892;88;20669;-79
2021/03/21 07:09:38;;;;;;;38.90;14.03;;;5.00;99.90;;;;;;6687328;88;20192;-79
2021/03/21 07:20:07;;;;;;;36.90;14.23;;;5.10;99.90;;;;;;6686683;88;20219;-79
2021/03/21 07:30:23;;;;;;;42.55;15.73;;;5.20;99.90;;;;;;6690271;88;20638;-78
2021/03/21 07:40:37;;;;;;;44.85;16.45;;;5.30;99.90;;;;;;6685187;88;20623;-78
2021/03/21 07:51:04;;;;;;;40.10;14.93;;;5.40;99.90;;;;;;6682582;88;20193;-78
2021/03/21 08:01:04;;;;;;;40.65;15.63;;;5.50;99.90;;;;;;6670510;88;20201;-77
2021/03/21 08:11:06;;;;;;;42.22;17.17;;;5.60;99.90;;;;;;6684095;88;20320;-78
2021/03/21 08:21:22;;;;;;;33.50;14.82;;;5.90;99.90;;;;;;6683205;88;20232;-77
2021/03/21 08:31:51;;;;;;;25.20;11.88;;;6.30;99.90;;;;;;6686671;88;20392;-78
2021/03/21 08:41:57;;;;;;;21.48;9.70;;;6.50;99.90;;;;;;6682317;88;20256;-77
2021/03/21 08:51:59;;;;;;;19.00;8.75;;;6.50;99.90;;;;;;6683514;88;20195;-77
2021/03/21 09:02:07;;;;;;;12.77;6.75;;;6.80;99.90;;;;;;6684421;88;20311;-78
2021/03/21 09:12:23;;;;;;;9.95;4.68;;;6.90;99.90;;;;;;6685917;88;20243;-78
2021/03/21 09:22:34;;;;;;;7.60;3.20;;;7.40;99.90;;;;;;6683051;88;20209;-75
2021/03/21 09:32:36;;;;;;;7.03;3.42;;;7.30;99.90;;;;;;6682789;88;20249;-77
2021/03/21 09:42:36;;;;;;;9.73;3.97;;;7.00;99.90;;;;;;6678976;88;20312;-77
2021/03/21 09:52:41;;;;;;;7.15;2.75;;;7.30;99.90;;;;;;6682529;88;20360;-76
2021/03/21 10:02:45;;;;;;;6.43;2.90;;;7.40;99.90;;;;;;6681637;88;21031;-78
2021/03/21 10:12:46;;;;;;;6.28;2.90;;;7.70;99.90;;;;;;6675814;88;20265;-77
2021/03/21 10:22:55;;;;;;;4.75;1.75;;;7.90;99.90;;;;;;6676978;88;20225;-77
2021/03/21 10:32:59;;;;;;;2.78;1.23;;;8.30;99.90;;;;;;6682351;88;20294;-76
2021/03/21 10:43:04;;;;;;;4.70;1.85;;;8.20;99.90;;;;;;6683362;88;20204;-78
2021/03/21 10:53:10;;;;;;;8.65;3.22;;;7.40;99.90;;;;;;6678421;88;20205;-77
2021/03/21 11:03:16;;;;;;;10.20;3.10;;;7.30;99.90;;;;;;6684521;88;20179;-75
2021/03/21 11:13:25;;;;;;;9.18;4.12;;;7.80;99.90;;;;;;6677233;88;20654;-76
2021/03/21 11:23:25;;;;;;;14.60;5.80;;;8.60;99.90;;;;;;6679178;88;20193;-75
2021/03/21 11:33:37;;;;;;;11.63;4.67;;;8.20;99.90;;;;;;6681794;88;20206;-77
2021/03/21 11:43:37;;;;;;;13.45;4.37;;;8.20;99.90;;;;;;6678734;88;20518;-77
2021/03/21 11:53:39;;;;;;;9.90;3.35;;;8.30;99.90;;;;;;6682288;88;20643;-79
2021/03/21 12:03:46;;;;;;;9.27;2.80;;;8.20;99.90;;;;;;6680403;88;20195;-78
2021/03/21 12:13:47;;;;;;;12.40;2.75;;;8.70;99.90;;;;;;6682015;88;20228;-78
2021/03/21 12:23:50;;;;;;;12.10;1.80;;;8.40;99.90;;;;;;6690962;77;20739;-75
2021/03/21 12:33:51;;;;;;;13.82;1.92;;;8.20;99.90;;;;;;6699255;88;20719;-78
2021/03/21 12:44:19;;;;;;;21.10;2.70;;;7.80;99.90;;;;;;6697197;88;20306;-75
2021/03/21 12:54:20;;;;;;;12.82;2.17;;;8.20;99.90;;;;;;6679171;88;20971;-76
2021/03/21 13:04:20;;;;;;;14.30;3.10;;;8.80;99.90;;;;;;6690727;88;20281;-77
2021/03/21 13:14:21;;;;;;;17.00;3.97;;;9.20;99.90;;;;;;6707255;88;20193;-78
2021/03/21 13:24:22;;;;;;;21.60;4.95;;;9.10;99.90;;;;;;6699574;88;20518;-77
2021/03/21 13:34:28;;;;;;;20.52;5.82;;;8.50;99.90;;;;;;6703207;88;20257;-77
2021/03/21 13:44:29;;;;;;;14.30;4.33;;;8.80;99.90;;;;;;6705731;88;20226;-77
2021/03/21 13:54:30;;;;;;;18.65;3.10;;;8.90;99.90;;;;;;6702656;88;20185;-76
2021/03/21 14:04:30;;;;;;;19.37;3.08;;;8.70;99.90;;;;;;6710466;88;20207;-79
2021/03/21 14:14:31;;;;;;;21.05;3.05;;;8.70;99.90;;;;;;6711593;88;20215;-77
2021/03/21 14:24:32;;;;;;;18.10;2.58;;;8.90;99.90;;;;;;6716693;88;20201;-76
2021/03/21 14:34:32;;;;;;;16.50;2.78;;;8.30;99.90;;;;;;6714652;88;20209;-77
2021/03/21 14:44:33;;;;;;;17.12;3.08;;;8.30;99.90;;;;;;6705464;88;20259;-76
2021/03/21 14:54:33;;;;;;;27.20;4.53;;;8.40;99.90;;;;;;6701204;88;20197;-76
2021/03/21 15:04:34;;;;;;;26.85;4.57;;;8.60;99.90;;;;;;6704278;88;20260;-76
2021/03/21 15:14:35;;;;;;;18.42;3.55;;;8.70;99.90;;;;;;6702081;88;20194;-76
2021/03/21 15:24:35;;;;;;;19.05;2.97;;;8.70;99.90;;;;;;6700600;88;20669;-77
2021/03/21 15:34:36;;;;;;;15.75;2.45;;;8.60;99.90;;;;;;6692745;88;20248;-76
2021/03/21 15:44:37;;;;;;;15.68;3.47;;;8.40;99.90;;;;;;6688603;88;20227;-75
2021/03/21 15:54:40;;;;;;;14.80;2.50;;;8.50;99.90;;;;;;6688159;88;20234;-75
2021/03/21 16:04:41;;;;;;;13.07;2.50;;;8.60;99.90;;;;;;6688923;88;20563;-74
2021/03/21 16:14:42;;;;;;;16.60;2.62;;;8.30;99.90;;;;;;6688975;88;20213;-75
2021/03/21 16:24:42;;;;;;;22.55;2.80;;;8.40;99.90;;;;;;6686673;88;20212;-75
2021/03/21 16:34:43;;;;;;;16.58;2.83;;;8.20;99.90;;;;;;6686967;88;20223;-75
2021/03/21 16:44:44;;;;;;;17.37;3.12;;;8.30;99.90;;;;;;6685702;88;20199;-74
2021/03/21 16:54:44;;;;;;;19.65;3.05;;;8.20;99.90;;;;;;6676819;88;20182;-76
2021/03/21 17:04:47;;;;;;;20.93;3.27;;;7.90;99.90;;;;;;6690702;88;20212;-76
2021/03/21 17:14:47;;;;;;;16.77;2.83;;;7.60;99.90;;;;;;6691602;88;20514;-77
2021/03/21 17:24:52;;;;;;;17.45;2.42;;;7.60;99.90;;;;;;6689865;88;20207;-76
2021/03/21 17:34:56;;;;;;;15.43;2.87;;;7.40;99.90;;;;;;6678401;88;20194;-74
2021/03/21 17:44:57;;;;;;;16.00;2.33;;;7.20;99.90;;;;;;6682681;88;20754;-75
2021/03/21 17:54:58;;;;;;;19.13;3.10;;;7.10;99.90;;;;;;6686196;88;20224;-74
2021/03/21 18:04:59;;;;;;;20.55;3.22;;;7.00;99.90;;;;;;6698755;88;20994;-75
2021/03/21 18:14:59;;;;;;;23.12;3.28;;;7.00;99.90;;;;;;6696015;88;20323;-75
2021/03/21 18:25:00;;;;;;;24.42;2.92;;;6.80;99.90;;;;;;6698651;88;20215;-76
2021/03/21 18:35:02;;;;;;;18.60;4.10;;;6.80;99.90;;;;;;6693851;88;20187;-77
2021/03/21 18:45:06;;;;;;;20.77;5.12;;;6.90;99.90;;;;;;6694482;88;20264;-73
2021/03/21 18:55:07;;;;;;;20.05;3.45;;;6.80;99.90;;;;;;6693343;88;20242;-75
2021/03/21 19:05:08;;;;;;;18.95;3.37;;;6.70;99.90;;;;;;6684570;88;20215;-74
2021/03/21 19:15:09;;;;;;;22.35;3.08;;;6.70;99.90;;;;;;6685593;88;20561;-75
2021/03/21 19:25:11;;;;;;;20.73;3.78;;;6.60;99.90;;;;;;6682971;88;20231;-74
2021/03/21 19:35:15;;;;;;;15.52;2.87;;;6.60;99.90;;;;;;6688102;88;20373;-75
2021/03/21 19:45:17;;;;;;;15.60;2.75;;;6.60;99.90;;;;;;6687975;88;20186;-73
2021/03/21 19:55:19;;;;;;;16.58;2.60;;;6.60;99.90;;;;;;6686802;88;20183;-75
2021/03/21 20:05:21;;;;;;;16.70;3.00;;;6.60;99.90;;;;;;6683057;88;20298;-74
2021/03/21 20:15:29;;;;;;;24.45;3.95;;;6.60;99.90;;;;;;6684977;88;20179;-76
2021/03/21 20:25:49;;;;;;;17.48;2.97;;;6.40;99.90;;;;;;6685721;88;20241;-74
2021/03/21 20:35:50;;;;;;;20.02;3.47;;;6.40;99.90;;;;;;6686404;88;20186;-75
2021/03/21 20:45:50;;;;;;;17.23;3.15;;;6.40;99.90;;;;;;6686674;88;20740;-74
2021/03/21 20:55:53;;;;;;;18.50;2.80;;;6.40;99.90;;;;;;6683313;88;20273;-75
2021/03/21 21:05:54;;;;;;;15.02;2.92;;;6.30;99.90;;;;;;6683750;88;20226;-75
2021/03/21 21:15:55;;;;;;;19.35;2.80;;;6.20;99.90;;;;;;6678175;88;21118;-74
2021/03/21 21:25:56;;;;;;;19.50;3.33;;;6.00;99.90;;;;;;6673741;88;20657;-75
2021/03/21 21:35:57;;;;;;;18.00;2.43;;;6.00;99.90;;;;;;6681341;88;20187;-75
2021/03/21 21:45:57;;;;;;;21.30;3.12;;;5.90;99.90;;;;;;6678587;88;20505;-75
2021/03/21 21:55:58;;;;;;;16.17;3.25;;;5.70;99.90;;;;;;6676833;88;20258;-75
2021/03/21 22:06:00;;;;;;;24.95;2.80;;;5.50;99.90;;;;;;6677772;88;20258;-75
2021/03/21 22:16:01;;;;;;;19.20;2.87;;;5.40;99.90;;;;;;6681140;88;20320;-75
2021/03/21 22:26:05;;;;;;;18.92;3.03;;;5.40;99.90;;;;;;6693051;88;20215;-75
2021/03/21 22:36:07;;;;;;;17.15;2.50;;;5.40;99.90;;;;;;6695305;88;20219;-75
2021/03/21 22:46:08;;;;;;;17.65;2.85;;;5.40;99.90;;;;;;6695493;88;20242;-74
2021/03/21 22:56:08;;;;;;;22.05;3.10;;;5.30;99.90;;;;;;6697690;88;20335;-75
2021/03/21 23:06:10;;;;;;;21.37;2.70;;;5.40;99.90;;;;;;6689954;88;20210;-73
2021/03/21 23:16:10;;;;;;;16.67;2.92;;;5.40;99.90;;;;;;6698687;88;20663;-75
2021/03/21 23:26:11;;;;;;;22.23;3.35;;;5.40;99.90;;;;;;6687845;88;20190;-74
2021/03/21 23:36:11;;;;;;;23.60;3.03;;;5.30;99.90;;;;;;6695606;88;20233;-74
2021/03/21 23:46:12;;;;;;;22.00;2.80;;;5.40;99.90;;;;;;6694845;88;20308;-74
2021/03/21 23:56:12;;;;;;;19.20;2.90;;;5.30;99.90;;;;;;6691805;88;20261;-75
